createdAt,value
2023-02-11T00:01:28.947Z,41.07
2023-02-11T00:03:56.602Z,36.23
2023-02-11T00:06:24.187Z,41.90
2023-02-11T00:08:50.943Z,40.00
2023-02-11T00:11:20.656Z,37.83
2023-02-11T00:13:48.174Z,36.07
2023-02-11T00:16:17.789Z,37.37
2023-02-11T00:18:45.544Z,33.60
2023-02-11T00:21:17.858Z,34.27
2023-02-11T00:23:49.167Z,35.83
2023-02-11T00:26:24.803Z,35.97
2023-02-11T00:28:52.234Z,41.57
2023-02-11T00:31:20.754Z,36.50
2023-02-11T00:33:48.129Z,35.10
2023-02-11T00:36:22.490Z,33.03
2023-02-11T00:38:50.851Z,37.40
2023-02-11T00:41:18.508Z,34.73
2023-02-11T00:43:45.301Z,34.30
2023-02-11T00:46:12.097Z,39.77
2023-02-11T00:48:41.816Z,39.37
2023-02-11T00:51:08.804Z,38.53
2023-02-11T00:53:35.678Z,40.70
2023-02-11T00:56:02.682Z,41.07
2023-02-11T00:58:30.929Z,31.80
2023-02-11T01:00:58.607Z,34.70
2023-02-11T01:03:25.428Z,36.53
2023-02-11T01:05:52.581Z,40.13
2023-02-11T01:08:19.906Z,38.70
2023-02-11T01:10:54.389Z,37.57
2023-02-11T01:13:20.987Z,43.53
2023-02-11T01:15:47.833Z,44.90
2023-02-11T01:18:14.628Z,43.13
2023-02-11T01:20:41.217Z,43.03
2023-02-11T01:23:07.959Z,40.33
2023-02-11T01:25:34.591Z,33.97
2023-02-11T01:28:01.181Z,37.13
2023-02-11T01:30:27.827Z,38.20
2023-02-11T01:32:54.568Z,36.83
2023-02-11T01:35:21.152Z,37.53
2023-02-11T01:37:47.749Z,33.40
2023-02-11T01:40:16.980Z,32.60
2023-02-11T01:42:44.620Z,34.20
2023-02-11T01:45:42.242Z,34.47
2023-02-11T01:48:12.761Z,34.40
2023-02-11T01:50:41.339Z,37.20
2023-02-11T01:53:28.159Z,38.67
2023-02-11T01:56:14.437Z,31.50
2023-02-11T01:58:44.590Z,32.23
2023-02-11T02:01:16.066Z,36.20
2023-02-11T02:03:46.807Z,33.57
2023-02-11T02:06:19.637Z,38.38
2023-02-11T02:09:01.288Z,35.10
2023-02-11T02:11:28.193Z,32.30
2023-02-11T02:13:54.822Z,32.53
2023-02-11T02:16:24.853Z,33.83
2023-02-11T02:19:16.517Z,34.50
2023-02-11T02:22:33.420Z,34.03
2023-02-11T02:25:08.964Z,33.80
2023-02-11T02:27:55.976Z,32.87
2023-02-11T02:30:49.883Z,35.17
2023-02-11T02:33:23.117Z,34.73
2023-02-11T02:36:03.119Z,32.17
2023-02-11T02:38:48.967Z,33.67
2023-02-11T02:41:21.189Z,35.27
2023-02-11T02:43:51.587Z,37.17
2023-02-11T02:46:23.839Z,32.65
2023-02-11T02:48:52.984Z,30.87
2023-02-11T02:51:39.918Z,37.23
2023-02-11T02:54:34.216Z,34.07
2023-02-11T02:57:19.204Z,33.23
2023-02-11T03:00:04.454Z,30.83
2023-02-11T03:02:46.306Z,30.77
2023-02-11T03:05:23.821Z,32.33
2023-02-11T03:08:19.746Z,31.27
2023-02-11T03:10:51.479Z,28.23
2023-02-11T03:13:22.550Z,30.23
2023-02-11T03:15:53.628Z,27.57
2023-02-11T03:18:26.255Z,27.03
2023-02-11T03:20:54.997Z,27.00
2023-02-11T03:23:34.758Z,28.57
2023-02-11T03:26:30.177Z,28.20
2023-02-11T03:29:14.116Z,27.73
2023-02-11T03:31:53.685Z,22.67
2023-02-11T03:34:57.610Z,27.20
2023-02-11T03:37:35.722Z,27.37
2023-02-11T03:40:10.384Z,23.23
2023-02-11T03:42:53.359Z,27.00
2023-02-11T03:45:22.569Z,27.97
2023-02-11T03:47:55.723Z,28.70
2023-02-11T03:50:24.327Z,21.93
2023-02-11T03:52:51.725Z,25.73
2023-02-11T03:55:20.834Z,29.30
2023-02-11T03:57:48.188Z,24.57
2023-02-11T04:00:15.524Z,23.90
2023-02-11T04:02:42.417Z,22.17
2023-02-11T04:05:12.535Z,23.93
2023-02-11T04:07:39.163Z,26.30
2023-02-11T04:10:08.494Z,24.13
2023-02-11T04:12:35.160Z,23.67
2023-02-11T04:15:01.678Z,22.80
2023-02-11T04:17:28.403Z,23.57
2023-02-11T04:19:55.115Z,21.97
2023-02-11T04:22:21.832Z,21.23
2023-02-11T04:24:48.772Z,24.43
2023-02-11T04:27:15.412Z,23.43
2023-02-11T04:29:42.975Z,22.93
2023-02-11T04:32:11.511Z,22.17
2023-02-11T04:34:38.380Z,19.73
2023-02-11T04:37:05.231Z,25.17
2023-02-11T04:39:31.912Z,19.33
2023-02-11T04:41:58.579Z,22.13
2023-02-11T04:44:25.285Z,21.83
2023-02-11T04:46:51.975Z,23.50
2023-02-11T04:49:18.631Z,21.73
2023-02-11T04:51:48.239Z,19.83
2023-02-11T04:54:16.286Z,24.33
2023-02-11T04:56:42.954Z,22.53
2023-02-11T04:59:09.640Z,23.70
2023-02-11T05:01:36.402Z,20.43
2023-02-11T05:04:03.115Z,23.80
2023-02-11T05:06:29.778Z,21.63
2023-02-11T05:08:56.684Z,24.60
2023-02-11T05:11:25.214Z,23.60
2023-02-11T05:13:52.303Z,21.87
2023-02-11T05:16:19.141Z,22.63
2023-02-11T05:18:46.747Z,25.30
2023-02-11T05:21:17.352Z,22.03
2023-02-11T05:23:44.535Z,20.70
2023-02-11T05:26:12.922Z,21.73
2023-02-11T05:28:39.929Z,23.57
2023-02-11T05:31:08.012Z,37.93
2023-02-11T05:33:34.661Z,27.80
2023-02-11T05:36:07.675Z,21.53
2023-02-11T05:38:35.016Z,20.33
2023-02-11T05:41:01.923Z,22.60
2023-02-11T05:43:28.593Z,21.33
2023-02-11T05:45:55.442Z,22.23
2023-02-11T05:48:22.024Z,25.23
2023-02-11T05:50:49.605Z,22.83
2023-02-11T05:53:17.408Z,21.37
2023-02-11T05:55:44.089Z,22.10
2023-02-11T05:58:10.776Z,21.07
2023-02-11T06:00:37.865Z,18.40
2023-02-11T06:03:05.110Z,20.93
2023-02-11T06:05:32.215Z,20.47
2023-02-11T06:07:59.228Z,20.30
2023-02-11T06:10:26.120Z,22.17
2023-02-11T06:12:52.639Z,17.53
2023-02-11T06:15:19.264Z,25.67
2023-02-11T06:17:46.000Z,25.93
2023-02-11T06:20:12.585Z,21.07
2023-02-11T06:22:39.221Z,24.57
2023-02-11T06:25:06.383Z,21.40
2023-02-11T06:27:33.081Z,17.83
2023-02-11T06:30:00.271Z,22.57
2023-02-11T06:32:43.748Z,19.50
2023-02-11T06:35:12.448Z,22.00
2023-02-11T06:37:39.852Z,22.50
2023-02-11T06:40:06.923Z,18.20
2023-02-11T06:42:34.730Z,18.70
2023-02-11T06:45:01.435Z,20.63
2023-02-11T06:47:27.959Z,20.30
2023-02-11T06:49:54.518Z,17.90
2023-02-11T06:52:21.232Z,18.70
2023-02-11T06:54:47.891Z,18.33
2023-02-11T06:57:14.654Z,19.03
2023-02-11T06:59:41.377Z,21.10
2023-02-11T07:02:11.046Z,19.87
2023-02-11T07:04:38.088Z,19.10
2023-02-11T07:07:04.844Z,20.50
2023-02-11T07:24:02.727Z,18.43
2023-02-11T07:26:29.353Z,15.87
2023-02-11T07:28:56.008Z,17.77
2023-02-11T07:31:28.839Z,15.53
2023-02-11T07:36:43.807Z,17.43
2023-02-11T07:39:11.085Z,19.60
2023-02-11T07:41:40.356Z,15.80
2023-02-11T07:44:07.468Z,16.37
2023-02-11T07:46:35.996Z,15.90
2023-02-11T07:49:05.213Z,17.90
2023-02-11T07:51:32.052Z,20.83
2023-02-11T07:54:00.905Z,16.87
2023-02-11T07:56:28.970Z,16.60
2023-02-11T07:58:57.151Z,16.53
2023-02-11T08:01:28.584Z,17.90
2023-02-11T08:04:05.006Z,16.77
2023-02-11T08:06:36.230Z,16.87
2023-02-11T08:09:15.296Z,15.73
2023-02-11T08:11:42.408Z,16.77
2023-02-11T08:14:09.844Z,14.03
2023-02-11T08:16:58.417Z,15.83
2023-02-11T08:19:30.512Z,19.47
2023-02-11T08:22:06.695Z,18.77
2023-02-11T08:24:42.614Z,17.47
2023-02-11T08:27:11.944Z,16.37
2023-02-11T08:30:05.521Z,18.37
2023-02-11T08:32:34.863Z,18.33
2023-02-11T08:35:01.772Z,18.27
2023-02-11T08:37:29.162Z,18.83
2023-02-11T08:39:56.978Z,16.77
2023-02-11T08:42:23.596Z,19.93
2023-02-11T08:44:50.242Z,15.40
2023-02-11T08:47:16.864Z,16.50
2023-02-11T08:49:43.647Z,16.43
2023-02-11T08:52:10.446Z,16.37
2023-02-11T08:54:38.150Z,18.40
2023-02-11T08:57:05.465Z,17.70
2023-02-11T08:59:32.105Z,22.03
2023-02-11T09:01:58.785Z,22.43
2023-02-11T09:04:26.555Z,21.27
2023-02-11T09:06:53.194Z,17.73
2023-02-11T09:09:20.146Z,22.50
2023-02-11T09:11:46.835Z,21.83
2023-02-11T09:14:21.928Z,25.53
2023-02-11T09:16:49.096Z,19.17
2023-02-11T09:19:20.972Z,19.80
2023-02-11T09:21:49.179Z,21.37
2023-02-11T09:24:15.979Z,18.77
2023-02-11T09:26:53.537Z,21.13
2023-02-11T09:29:20.195Z,21.50
2023-02-11T09:31:46.897Z,17.40
2023-02-11T09:34:16.349Z,20.40
2023-02-11T09:36:43.068Z,22.47
2023-02-11T09:39:14.578Z,19.53
2023-02-11T09:41:54.884Z,18.87
2023-02-11T09:44:27.199Z,20.80
2023-02-11T09:47:17.031Z,16.50
2023-02-11T09:49:57.376Z,18.73
2023-02-11T09:52:35.748Z,19.80
2023-02-11T09:55:05.819Z,16.87
2023-02-11T09:57:35.556Z,15.43
2023-02-11T10:00:16.161Z,16.15
2023-02-11T10:02:55.510Z,18.77
2023-02-11T10:05:57.571Z,17.37
2023-02-11T10:08:44.128Z,17.40
2023-02-11T10:11:30.623Z,19.63
2023-02-11T10:14:39.948Z,16.63
2023-02-11T10:17:27.758Z,17.37
2023-02-11T10:20:07.812Z,19.10
2023-02-11T10:22:40.368Z,17.75
2023-02-11T10:25:40.674Z,17.43
2023-02-11T10:28:32.915Z,22.92
2023-02-11T10:31:10.591Z,20.37
2023-02-11T10:34:12.951Z,21.60
2023-02-11T10:36:45.518Z,21.60
2023-02-11T10:39:19.313Z,17.40
2023-02-11T10:42:13.193Z,17.70
2023-02-11T10:44:59.750Z,16.70
2023-02-11T10:47:32.886Z,18.60
2023-02-11T10:50:03.676Z,17.20
2023-02-11T10:52:30.876Z,17.00
2023-02-11T10:55:01.222Z,18.07
2023-02-11T10:57:44.682Z,16.73
2023-02-11T11:00:29.400Z,15.97
2023-02-11T11:02:58.911Z,16.03
2023-02-11T11:05:38.216Z,13.80
2023-02-11T11:08:07.769Z,16.67
2023-02-11T11:10:43.726Z,16.70
2023-02-11T11:13:35.667Z,16.40
2023-02-11T11:16:16.804Z,15.70
2023-02-11T11:18:49.264Z,19.30
2023-02-11T11:21:29.039Z,17.83
2023-02-11T11:24:01.347Z,15.90
2023-02-11T11:26:41.439Z,15.50
2023-02-11T11:29:16.278Z,16.80
2023-02-11T11:31:57.114Z,17.87
2023-02-11T11:34:50.271Z,18.17
2023-02-11T11:37:25.265Z,17.93
2023-02-11T11:40:07.779Z,18.33
2023-02-11T11:42:37.466Z,19.73
2023-02-11T11:45:27.189Z,19.83
2023-02-11T11:48:22.639Z,18.65
2023-02-11T11:51:02.091Z,17.23
2023-02-11T11:53:40.812Z,18.70
2023-02-11T11:56:21.969Z,18.20
2023-02-11T11:58:54.510Z,19.40
2023-02-11T12:01:52.187Z,19.43
2023-02-11T12:04:36.951Z,18.80
2023-02-11T12:07:06.519Z,17.97
2023-02-11T12:10:08.672Z,20.42
2023-02-11T12:13:00.651Z,19.50
2023-02-11T12:15:39.343Z,17.40
2023-02-11T12:18:25.931Z,21.33
2023-02-11T12:21:16.862Z,18.67
2023-02-11T12:24:08.386Z,20.00
2023-02-11T12:26:34.929Z,18.37
2023-02-11T12:29:19.986Z,17.60
2023-02-11T12:32:13.322Z,20.57
2023-02-11T12:35:12.520Z,21.27
2023-02-11T12:38:03.631Z,18.60
2023-02-11T12:40:45.853Z,18.67
2023-02-11T12:43:20.538Z,18.90
2023-02-11T12:46:05.225Z,18.70
2023-02-11T12:48:34.102Z,18.43
2023-02-11T12:51:13.081Z,21.23
2023-02-11T12:53:53.906Z,20.83
2023-02-11T12:56:42.066Z,19.53
2023-02-11T12:59:31.240Z,22.23
2023-02-11T13:02:02.755Z,18.73
2023-02-11T13:04:37.980Z,17.80
2023-02-11T13:07:14.481Z,20.63
2023-02-11T13:09:48.896Z,21.70
2023-02-11T13:12:35.565Z,21.13
2023-02-11T13:15:07.132Z,19.53
2023-02-11T13:17:41.624Z,22.23
2023-02-11T13:20:23.438Z,22.00
2023-02-11T13:23:05.598Z,18.33
2023-02-11T13:25:53.242Z,19.80
2023-02-11T13:28:29.689Z,19.97
2023-02-11T13:31:03.150Z,22.77
2023-02-11T13:33:39.674Z,19.40
2023-02-11T13:36:06.282Z,22.87
2023-02-11T13:38:33.748Z,20.40
2023-02-11T13:41:06.946Z,20.13
2023-02-11T13:43:36.149Z,24.93
2023-02-11T13:46:10.236Z,23.40
2023-02-11T13:48:39.387Z,21.83
2023-02-11T13:51:17.088Z,22.00
2023-02-11T13:54:02.690Z,20.13
2023-02-11T13:56:39.359Z,22.40
2023-02-11T13:59:30.861Z,21.97
2023-02-11T14:02:19.220Z,22.90
2023-02-11T14:05:22.817Z,23.37
2023-02-11T14:08:31.598Z,25.90
2023-02-11T14:11:12.552Z,30.87
2023-02-11T14:13:48.760Z,26.77
2023-02-11T14:16:35.304Z,21.10
2023-02-11T14:19:04.455Z,24.37
2023-02-11T14:21:38.860Z,25.53
2023-02-11T14:24:07.188Z,24.50
2023-02-11T14:26:56.141Z,25.27
2023-02-11T14:29:37.526Z,24.27
2023-02-11T14:32:41.819Z,25.07
2023-02-11T14:35:18.871Z,29.83
2023-02-11T14:38:06.417Z,26.47
2023-02-11T14:40:52.840Z,27.93
2023-02-11T14:43:31.418Z,30.07
2023-02-11T14:46:01.429Z,33.30
2023-02-11T14:48:39.119Z,35.17
2023-02-11T14:51:35.057Z,31.13
2023-02-11T14:54:13.705Z,27.70
2023-02-11T14:56:44.571Z,26.77
2023-02-11T14:59:22.921Z,28.47
2023-02-11T15:01:56.719Z,33.00
2023-02-11T15:04:28.820Z,32.57
2023-02-11T15:06:59.857Z,30.13
2023-02-11T15:09:33.877Z,31.73
2023-02-11T15:12:07.588Z,25.97
2023-02-11T15:14:36.619Z,28.77
2023-02-11T15:17:06.462Z,27.13
2023-02-11T15:19:38.646Z,27.83
2023-02-11T15:22:18.749Z,27.00
2023-02-11T15:24:46.274Z,32.83
2023-02-11T15:27:16.214Z,29.17
2023-02-11T15:29:51.970Z,30.45
2023-02-11T15:32:22.151Z,31.60
2023-02-11T15:34:51.435Z,40.05
2023-02-11T15:37:24.565Z,35.27
2023-02-11T15:39:53.007Z,32.03
2023-02-11T15:42:52.238Z,30.43
2023-02-11T15:45:38.581Z,76.87
2023-02-11T15:48:23.561Z,46.53
2023-02-11T15:50:54.207Z,36.53
2023-02-11T15:53:33.382Z,35.83
2023-02-11T15:56:12.147Z,34.53
2023-02-11T15:58:43.409Z,32.17
2023-02-11T16:01:11.453Z,32.30
2023-02-11T16:03:40.307Z,34.30
2023-02-11T16:06:17.844Z,29.40
2023-02-11T16:09:05.720Z,31.17
2023-02-11T16:11:35.647Z,29.83
2023-02-11T16:14:21.818Z,33.20
2023-02-11T16:16:52.991Z,29.30
2023-02-11T16:19:24.943Z,28.37
2023-02-11T16:21:55.134Z,32.80
2023-02-11T16:24:32.470Z,33.88
2023-02-11T16:27:02.254Z,31.40
2023-02-11T16:29:36.331Z,34.15
2023-02-11T16:32:16.103Z,30.17
2023-02-11T16:34:43.046Z,27.55
2023-02-11T16:37:09.839Z,30.63
2023-02-11T16:39:36.706Z,29.60
2023-02-11T16:42:07.080Z,29.40
2023-02-11T16:47:06.150Z,33.47
2023-02-11T16:49:38.443Z,33.47
2023-02-11T16:52:13.594Z,35.37
2023-02-11T16:54:42.236Z,34.73
2023-02-11T16:57:15.383Z,35.40
2023-02-11T16:59:42.556Z,34.87
2023-02-11T17:02:30.769Z,35.03
2023-02-11T17:05:08.990Z,28.60
2023-02-11T17:07:35.812Z,30.53
2023-02-11T17:10:02.508Z,33.47
2023-02-11T17:12:29.328Z,33.30
2023-02-11T17:14:56.143Z,36.30
2023-02-11T17:17:24.056Z,37.27
2023-02-11T17:19:51.524Z,37.80
2023-02-11T17:22:18.839Z,35.57
2023-02-11T17:24:45.677Z,42.90
2023-02-11T17:27:14.431Z,39.50
2023-02-11T17:29:41.282Z,37.20
2023-02-11T17:32:08.104Z,36.33
2023-02-11T17:34:34.889Z,39.60
2023-02-11T17:37:07.895Z,36.20
2023-02-11T17:39:39.207Z,40.73
2023-02-11T17:42:06.930Z,40.40
2023-02-11T17:44:34.042Z,35.63
2023-02-11T17:47:00.688Z,35.10
2023-02-11T17:49:27.726Z,35.03
2023-02-11T17:51:55.895Z,39.30
2023-02-11T17:54:22.631Z,31.60
2023-02-11T17:56:51.016Z,43.77
2023-02-11T17:59:17.977Z,43.73
2023-02-11T18:01:44.961Z,37.73
2023-02-11T18:04:17.918Z,39.57
2023-02-11T18:06:45.342Z,38.73
2023-02-11T18:09:12.378Z,44.93
2023-02-11T18:11:39.978Z,41.27
2023-02-11T18:14:08.065Z,53.17
2023-02-11T18:16:36.860Z,56.87
2023-02-11T18:19:03.648Z,47.10
2023-02-11T18:21:31.432Z,41.13
2023-02-11T18:24:01.147Z,42.00
2023-02-11T18:26:54.808Z,38.50
2023-02-11T18:29:21.491Z,40.95
2023-02-11T18:31:48.138Z,40.87
2023-02-11T18:34:16.082Z,41.93
2023-02-11T18:36:43.103Z,44.53
2023-02-11T18:39:09.934Z,46.13
2023-02-11T18:41:36.758Z,42.53
2023-02-11T18:44:05.077Z,47.27
2023-02-11T18:46:31.886Z,43.33
2023-02-11T18:48:59.632Z,38.50
2023-02-11T18:51:26.940Z,39.13
2023-02-11T18:53:53.845Z,38.50
2023-02-11T18:56:23.149Z,35.50
2023-02-11T18:58:51.646Z,42.67
2023-02-11T19:01:49.479Z,38.43
2023-02-11T19:04:19.960Z,40.47
2023-02-11T19:06:49.524Z,42.17
2023-02-11T19:09:19.531Z,51.20
2023-02-11T19:11:54.130Z,43.50
2023-02-11T19:14:26.421Z,41.10
2023-02-11T19:16:58.028Z,40.43
2023-02-11T19:19:28.315Z,38.67
2023-02-11T19:21:55.883Z,36.00
2023-02-11T19:24:23.508Z,33.57
2023-02-11T19:26:52.575Z,34.97
2023-02-11T19:29:19.850Z,38.53
2023-02-11T19:31:46.903Z,36.33
2023-02-11T19:34:15.827Z,32.67
2023-02-11T19:36:43.111Z,35.70
2023-02-11T19:39:10.577Z,33.93
2023-02-11T19:41:37.503Z,38.63
2023-02-11T19:44:05.566Z,37.23
2023-02-11T19:46:35.345Z,40.03
2023-02-11T19:49:03.876Z,39.70
2023-02-11T19:51:32.804Z,37.57
2023-02-11T19:54:00.475Z,37.53
2023-02-11T19:56:30.766Z,36.80
2023-02-11T19:58:58.211Z,36.47
2023-02-11T20:01:26.010Z,36.03
2023-02-11T20:03:55.023Z,37.70
2023-02-11T20:06:25.209Z,35.70
2023-02-11T20:08:59.679Z,39.88
2023-02-11T20:11:31.143Z,40.23
2023-02-11T20:13:59.047Z,35.10
2023-02-11T20:16:46.176Z,28.37
2023-02-11T20:19:19.481Z,32.73
2023-02-11T20:21:48.727Z,32.50
2023-02-11T20:24:19.185Z,32.70
2023-02-11T20:26:48.688Z,31.83
2023-02-11T20:29:17.427Z,27.58
2023-02-11T20:31:44.318Z,25.40
2023-02-11T20:34:12.424Z,23.17
2023-02-11T20:36:40.759Z,26.03
2023-02-11T20:39:08.486Z,22.83
2023-02-11T20:41:39.389Z,20.83
2023-02-11T20:44:08.979Z,22.47
2023-02-11T20:46:40.068Z,19.70
2023-02-11T20:49:08.913Z,18.67
2023-02-11T20:51:37.379Z,24.03
2023-02-11T20:54:06.477Z,18.90
2023-02-11T20:56:36.935Z,18.87
2023-02-11T20:59:04.788Z,20.73
2023-02-11T21:01:37.823Z,21.03
2023-02-11T21:04:10.880Z,21.47
2023-02-11T21:06:40.347Z,19.20
2023-02-11T21:09:09.436Z,21.70
2023-02-11T21:11:36.178Z,20.47
2023-02-11T21:14:03.294Z,15.90
2023-02-11T21:16:30.010Z,14.40
2023-02-11T21:18:57.089Z,15.47
2023-02-11T21:21:24.512Z,15.97
2023-02-11T21:23:51.240Z,13.53
2023-02-11T21:26:18.095Z,15.90
2023-02-11T21:28:44.936Z,24.43
2023-02-11T21:31:21.774Z,18.47
2023-02-11T21:33:49.634Z,22.43
2023-02-11T21:36:16.373Z,16.97
2023-02-11T21:38:43.014Z,14.50
2023-02-11T21:41:09.950Z,20.17
2023-02-11T21:43:36.579Z,13.20
2023-02-11T21:46:09.184Z,15.20
2023-02-11T21:48:36.162Z,18.57
2023-02-11T21:51:07.816Z,13.00
2023-02-11T21:53:35.046Z,17.00
2023-02-11T21:56:22.802Z,13.80
2023-02-11T21:58:53.195Z,17.23
2023-02-11T22:01:25.556Z,13.37
2023-02-11T22:03:52.797Z,10.77
2023-02-11T22:06:23.523Z,11.60
2023-02-11T22:08:50.118Z,12.63
2023-02-11T22:11:17.135Z,13.77
2023-02-11T22:13:43.893Z,10.93
2023-02-11T22:16:14.317Z,11.97
2023-02-11T22:21:11.472Z,10.47
2023-02-11T22:23:38.983Z,9.35
2023-02-11T22:26:12.620Z,8.97
2023-02-11T22:28:40.629Z,9.63
2023-02-11T22:31:11.498Z,10.93
2023-02-11T22:33:38.200Z,11.63
2023-02-11T22:36:08.719Z,8.90
2023-02-11T22:38:35.756Z,8.23
2023-02-11T22:41:06.798Z,10.37
2023-02-11T22:43:33.405Z,9.80
2023-02-11T22:46:04.654Z,8.53
2023-02-11T22:48:31.683Z,7.93
2023-02-11T22:51:04.850Z,11.03
2023-02-11T22:53:31.436Z,8.77
2023-02-11T22:56:05.467Z,10.03
2023-02-11T22:58:35.536Z,11.53
2023-02-11T23:01:05.383Z,10.48
2023-02-11T23:03:33.831Z,26.88
2023-02-11T23:06:01.113Z,14.40
2023-02-11T23:08:28.564Z,12.80
2023-02-11T23:10:56.398Z,10.83
2023-02-11T23:13:23.159Z,11.50
2023-02-11T23:15:49.834Z,12.67
2023-02-11T23:18:16.494Z,11.70
2023-02-11T23:20:44.135Z,10.27
2023-02-11T23:23:10.939Z,11.87
2023-02-11T23:25:45.102Z,14.33
2023-02-11T23:28:12.829Z,8.93
2023-02-11T23:30:39.660Z,10.30
2023-02-11T23:33:06.360Z,13.10
2023-02-11T23:35:33.297Z,11.87
2023-02-11T23:38:00.053Z,10.53
2023-02-11T23:40:26.762Z,13.63
2023-02-11T23:42:53.493Z,14.33
2023-02-11T23:45:20.211Z,12.13
2023-02-11T23:47:47.728Z,13.63
2023-02-11T23:50:14.784Z,13.67
2023-02-11T23:52:41.550Z,13.30
2023-02-11T23:55:08.964Z,11.07
2023-02-11T23:57:36.127Z,13.07
